Oktjabr'Skoe, Russia
Current Conditions -  °F | °C
As of 12:00 PM on Thursday 27 Nov 2014 (Local Time) from USHH Reporting Station
Clear Clear  
Wind Chill: -37°   Ceiling: Unl
Heat Index: -20°   Visibility: 6mi
Dew Point: -29°   Wind: 7mph
Humidity: 63%   Direction: 300°WNW
Pressure: 30.36"   Gusts: NA
Location:  62.45°N, 66.05°E
Report Text: USHH 270700Z 30003MPS CAVOK M29/M34 Q1028 NOSIG RMK QFE76706////55
Loading
Personal Weather Stations






























Interactive Weather Map New forecast layout! Learn more

10-Day Weather Forecast

Advertisements
Track Severe Weather on mobile